Terminal Aerodrome Forecast
Issued by NWS

Home | Current Version | Previous Version | Text Only | Print | Product List | Glossary Off
Versions: 1 2 3 4 5 6 7 8 9 10 11 12 13 14 15 16

000
FTUS43 KGRB 262328
TAFAUW
TAF
KAUW 262328Z 2700/2724 19006KT P6SM SCT080
     FM270700 19004KT 5SM BR SCT040
      TEMPO 2708/2712 2SM BR BKN003
     FM271300 21005KT P6SM SCT015 SCT040
     FM271600 25008KT P6SM SCT050 SCT090=

USA.gov is the U.S. government's official web portal to all federal, state and local government web resources and services.